createdAt,value
2017-01-09T00:00:43.099Z,18.36
2017-01-09T00:01:43.711Z,18.37
2017-01-09T00:02:43.164Z,18.27
2017-01-09T00:03:43.174Z,18.37
2017-01-09T00:04:43.179Z,18.76
2017-01-09T00:05:43.135Z,18.18
2017-01-09T00:06:43.142Z,18.26
2017-01-09T00:07:42.752Z,18.66
2017-01-09T00:08:43.210Z,18.27
2017-01-09T00:09:43.162Z,18.37
2017-01-09T00:10:43.169Z,18.46
2017-01-09T00:11:43.180Z,18.37
2017-01-09T00:12:43.234Z,18.36
2017-01-09T00:13:43.191Z,18.26
2017-01-09T00:14:42.801Z,18.17
2017-01-09T00:15:43.278Z,18.27
2017-01-09T00:16:43.214Z,18.26
2017-01-09T00:17:43.270Z,18.47
2017-01-09T00:18:42.881Z,18.57
2017-01-09T00:19:42.885Z,18.18
2017-01-09T00:20:43.238Z,18.37
2017-01-09T00:21:43.296Z,18.27
2017-01-09T00:22:43.249Z,18.37
2017-01-09T00:23:43.260Z,18.47
2017-01-09T00:24:43.266Z,18.66
2017-01-09T00:25:43.322Z,18.46
2017-01-09T00:26:43.282Z,18.57
2017-01-09T00:27:44.439Z,18.57
2017-01-09T00:28:43.596Z,18.26
2017-01-09T00:29:43.699Z,18.37
2017-01-09T00:30:42.959Z,18.18
2017-01-09T00:31:43.365Z,18.85
2017-01-09T00:32:43.369Z,18.65
2017-01-09T00:33:42.930Z,18.55
2017-01-09T00:34:42.987Z,18.36
2017-01-09T00:35:43.340Z,18.85
2017-01-09T00:36:42.959Z,18.55
2017-01-09T00:37:43.455Z,18.55
2017-01-09T00:38:44.386Z,18.95
2017-01-09T00:39:43.368Z,18.85
2017-01-09T00:40:44.133Z,18.95
2017-01-09T00:41:43.337Z,18.75
2017-01-09T00:42:43.390Z,18.55
2017-01-09T00:43:42.999Z,18.75
2017-01-09T00:44:43.007Z,18.85
2017-01-09T00:45:43.459Z,18.94
2017-01-09T00:46:43.465Z,18.95
2017-01-09T00:47:43.427Z,18.85
2017-01-09T00:48:43.454Z,18.85
2017-01-09T00:49:43.193Z,18.75
2017-01-09T00:50:43.494Z,18.85
2017-01-09T00:51:43.451Z,18.75
2017-01-09T00:52:43.462Z,18.75
2017-01-09T00:53:43.490Z,18.76
2017-01-09T00:54:43.473Z,18.85
2017-01-09T00:55:43.529Z,18.65
2017-01-09T00:56:43.537Z,18.85
2017-01-09T00:57:43.144Z,18.55
2017-01-09T00:58:44.602Z,18.85
2017-01-09T00:59:43.500Z,18.75
2017-01-09T01:00:44.082Z,18.55
2017-01-09T01:01:43.123Z,18.85
2017-01-09T01:02:43.208Z,18.65
2017-01-09T01:03:43.580Z,18.85
2017-01-09T01:04:43.149Z,18.85
2017-01-09T01:05:43.597Z,18.94
2017-01-09T01:06:43.157Z,18.94
2017-01-09T01:07:43.167Z,18.76
2017-01-09T01:08:43.618Z,18.75
2017-01-09T01:09:43.176Z,18.75
2017-01-09T01:10:43.237Z,18.75
2017-01-09T01:11:43.589Z,18.37
2017-01-09T01:12:43.595Z,18.75
2017-01-09T01:13:43.204Z,18.75
2017-01-09T01:14:43.530Z,18.55
2017-01-09T01:15:43.615Z,18.85
2017-01-09T01:16:43.277Z,18.85
2017-01-09T01:17:43.280Z,18.76
2017-01-09T01:18:43.341Z,18.65
2017-01-09T01:19:43.644Z,18.76
2017-01-09T01:20:43.653Z,18.75
2017-01-09T01:21:43.659Z,18.85
2017-01-09T01:22:43.267Z,18.85
2017-01-09T01:23:43.771Z,18.55
2017-01-09T01:24:43.331Z,18.65
2017-01-09T01:25:43.287Z,18.85
2017-01-09T01:26:43.741Z,18.75
2017-01-09T01:27:43.304Z,18.75
2017-01-09T01:28:43.360Z,18.94
2017-01-09T01:29:43.414Z,18.94
2017-01-09T01:30:43.819Z,18.94
2017-01-09T01:31:44.426Z,18.37
2017-01-09T01:32:43.784Z,18.57
2017-01-09T01:33:43.393Z,18.55
2017-01-09T01:34:43.398Z,18.66
2017-01-09T01:35:43.851Z,18.66
2017-01-09T01:36:43.368Z,18.57
2017-01-09T01:37:43.816Z,18.55
2017-01-09T01:38:43.376Z,18.76
2017-01-09T01:39:43.780Z,18.57
2017-01-09T01:40:43.441Z,18.65
2017-01-09T01:41:43.445Z,18.94
2017-01-09T01:42:43.405Z,18.85
2017-01-09T01:43:43.807Z,18.94
2017-01-09T01:44:44.313Z,18.94
2017-01-09T01:45:43.424Z,18.85
2017-01-09T01:46:43.826Z,18.55
2017-01-09T01:47:43.888Z,18.65
2017-01-09T01:48:43.449Z,18.85
2017-01-09T01:49:43.872Z,18.65
2017-01-09T01:50:43.461Z,18.65
2017-01-09T01:51:43.465Z,18.85
2017-01-09T01:52:43.868Z,18.75
2017-01-09T01:53:43.927Z,18.75
2017-01-09T01:54:43.884Z,18.75
2017-01-09T01:55:45.012Z,18.75
2017-01-09T01:56:43.499Z,18.46
2017-01-09T01:57:43.952Z,18.85
2017-01-09T01:58:43.565Z,18.65
2017-01-09T01:59:43.917Z,18.55
2017-01-09T02:00:43.528Z,18.85
2017-01-09T02:01:43.934Z,18.85
2017-01-09T02:02:43.986Z,18.55
2017-01-09T02:03:43.992Z,18.75
2017-01-09T02:04:44.001Z,18.94
2017-01-09T02:05:43.955Z,18.65
2017-01-09T02:06:44.063Z,18.55
2017-01-09T02:07:43.624Z,18.85
2017-01-09T02:08:43.976Z,18.65
2017-01-09T02:09:44.080Z,18.94
2017-01-09T02:10:44.043Z,18.94
2017-01-09T02:11:43.996Z,18.85
2017-01-09T02:12:44.060Z,18.75
2017-01-09T02:13:43.614Z,18.55
2017-01-09T02:14:44.019Z,18.85
2017-01-09T02:15:44.775Z,18.55
2017-01-09T02:16:44.031Z,18.55
2017-01-09T02:17:44.185Z,18.94
2017-01-09T02:18:44.094Z,18.85
2017-01-09T02:19:44.051Z,18.85
2017-01-09T02:20:44.058Z,18.55
2017-01-09T02:21:43.669Z,18.65
2017-01-09T02:22:43.677Z,18.65
2017-01-09T02:23:44.177Z,18.55
2017-01-09T02:24:43.691Z,18.46
2017-01-09T02:25:43.700Z,18.55
2017-01-09T02:26:43.702Z,19.23
2017-01-09T02:27:43.710Z,18.55
2017-01-09T02:28:43.729Z,18.94
2017-01-09T02:29:44.170Z,18.55
2017-01-09T02:30:43.732Z,18.55
2017-01-09T02:31:43.736Z,18.85
2017-01-09T02:32:43.742Z,18.94
2017-01-09T02:33:44.150Z,18.65
2017-01-09T02:34:44.154Z,18.65
2017-01-09T02:35:43.821Z,18.55
2017-01-09T02:36:44.068Z,18.75
2017-01-09T02:37:44.225Z,18.55
2017-01-09T02:38:43.835Z,18.65
2017-01-09T02:39:44.185Z,18.65
2017-01-09T02:40:43.798Z,18.94
2017-01-09T02:41:44.197Z,18.65
2017-01-09T02:42:43.808Z,18.75
2017-01-09T02:43:43.867Z,18.75
2017-01-09T02:44:44.222Z,18.65
2017-01-09T02:45:44.326Z,18.94
2017-01-09T02:46:44.233Z,18.85
2017-01-09T02:47:44.291Z,18.75
2017-01-09T02:48:45.223Z,18.65
2017-01-09T02:49:44.354Z,18.94
2017-01-09T02:50:44.814Z,18.46
2017-01-09T02:51:44.366Z,18.65
2017-01-09T02:52:44.274Z,18.65
2017-01-09T02:53:43.883Z,18.75
2017-01-09T02:54:43.895Z,18.65
2017-01-09T02:55:43.946Z,18.75
2017-01-09T02:56:44.303Z,18.75
2017-01-09T02:57:44.307Z,18.65
2017-01-09T02:58:43.919Z,18.75
2017-01-09T02:59:43.920Z,18.75
2017-01-09T03:00:43.981Z,18.75
2017-01-09T03:01:44.686Z,18.85
2017-01-09T03:02:44.390Z,18.65
2017-01-09T03:03:44.348Z,18.94
2017-01-09T03:04:43.959Z,18.85
2017-01-09T03:05:43.965Z,18.65
2017-01-09T03:06:44.072Z,18.85
2017-01-09T03:07:44.425Z,18.94
2017-01-09T03:08:44.380Z,18.75
2017-01-09T03:09:44.435Z,18.75
2017-01-09T03:10:45.100Z,18.65
2017-01-09T03:11:44.403Z,18.75
2017-01-09T03:12:44.458Z,18.65
2017-01-09T03:13:44.069Z,18.75
2017-01-09T03:14:45.549Z,18.65
2017-01-09T03:15:44.428Z,18.75
2017-01-09T03:16:44.534Z,18.55
2017-01-09T03:17:44.490Z,18.75
2017-01-09T03:18:44.052Z,18.55
2017-01-09T03:19:44.456Z,19.04
2017-01-09T03:20:44.115Z,18.75
2017-01-09T03:21:44.122Z,18.94
2017-01-09T03:22:44.525Z,18.65
2017-01-09T03:23:44.531Z,18.75
2017-01-09T03:24:44.142Z,18.75
2017-01-09T03:25:45.665Z,18.85
2017-01-09T03:26:44.106Z,18.75
2017-01-09T03:27:44.558Z,18.85
2017-01-09T03:28:44.565Z,18.55
2017-01-09T03:29:44.175Z,18.46
2017-01-09T03:30:44.133Z,18.94
2017-01-09T03:31:44.141Z,18.85
2017-01-09T03:32:44.592Z,18.46
2017-01-09T03:33:44.160Z,18.85
2017-01-09T03:34:44.557Z,18.85
2017-01-09T03:35:44.267Z,19.04
2017-01-09T03:36:45.421Z,18.94
2017-01-09T03:37:44.578Z,18.94
2017-01-09T03:38:44.238Z,18.85
2017-01-09T03:39:44.594Z,18.85
2017-01-09T03:40:44.651Z,18.85
2017-01-09T03:41:44.655Z,18.85
2017-01-09T03:42:44.613Z,18.85
2017-01-09T03:43:44.716Z,18.85
2017-01-09T03:44:44.276Z,18.85
2017-01-09T03:45:44.627Z,18.94
2017-01-09T03:46:44.688Z,18.85
2017-01-09T03:47:45.252Z,18.85
2017-01-09T03:48:44.255Z,18.94
2017-01-09T03:49:44.263Z,18.94
2017-01-09T03:50:44.786Z,18.94
2017-01-09T03:51:44.672Z,18.85
2017-01-09T03:52:44.728Z,18.65
2017-01-09T03:53:44.340Z,18.94
2017-01-09T03:54:44.346Z,18.85
2017-01-09T03:55:44.302Z,18.94
2017-01-09T03:56:44.754Z,18.85
2017-01-09T03:57:44.761Z,18.85
2017-01-09T03:58:44.322Z,18.75
2017-01-09T03:59:44.728Z,18.75
2017-01-09T04:00:44.733Z,18.85
2017-01-09T04:01:44.745Z,18.94
2017-01-09T04:02:44.800Z,18.85
2017-01-09T04:03:44.800Z,18.85
2017-01-09T04:04:44.866Z,18.85
2017-01-09T04:05:44.817Z,18.94
2017-01-09T04:06:44.774Z,18.94
2017-01-09T04:07:44.437Z,18.94
2017-01-09T04:08:44.393Z,18.94
2017-01-09T04:09:45.344Z,18.65
2017-01-09T04:10:44.404Z,18.85
2017-01-09T04:11:44.908Z,18.75
2017-01-09T04:12:44.866Z,18.85
2017-01-09T04:13:44.824Z,18.85
2017-01-09T04:14:44.829Z,18.94
2017-01-09T04:15:44.539Z,18.94
2017-01-09T04:16:44.892Z,18.94
2017-01-09T04:17:44.551Z,18.94
2017-01-09T04:18:44.460Z,18.94
2017-01-09T04:19:44.467Z,18.85
2017-01-09T04:20:45.023Z,18.94
2017-01-09T04:21:44.925Z,18.94
2017-01-09T04:22:44.488Z,18.94
2017-01-09T04:23:44.545Z,18.85
2017-01-09T04:24:44.552Z,18.85
2017-01-09T04:25:44.953Z,18.75
2017-01-09T04:26:44.514Z,18.85
2017-01-09T04:27:45.023Z,18.85
2017-01-09T04:28:44.974Z,18.75
2017-01-09T04:29:44.532Z,18.85
2017-01-09T04:30:44.988Z,18.85
2017-01-09T04:31:44.598Z,18.85
2017-01-09T04:32:44.952Z,18.94
2017-01-09T04:33:46.156Z,18.85
2017-01-09T04:34:45.014Z,18.94
2017-01-09T04:35:44.628Z,18.85
2017-01-09T04:36:44.631Z,18.85
2017-01-09T04:37:44.716Z,18.75
2017-01-09T04:38:44.993Z,18.85
2017-01-09T04:39:45.048Z,18.75
2017-01-09T04:40:45.054Z,18.75
2017-01-09T04:41:44.617Z,18.85
2017-01-09T04:42:45.067Z,18.75
2017-01-09T04:43:45.126Z,18.85
2017-01-09T04:44:46.085Z,18.75
2017-01-09T04:45:45.093Z,18.85
2017-01-09T04:46:44.649Z,18.75
2017-01-09T04:47:45.102Z,18.65
2017-01-09T04:48:45.060Z,18.75
2017-01-09T04:49:44.718Z,18.85
2017-01-09T04:50:45.073Z,18.94
2017-01-09T04:51:45.129Z,18.85
2017-01-09T04:52:44.794Z,18.85
2017-01-09T04:53:45.143Z,18.94
2017-01-09T04:54:45.099Z,18.85
2017-01-09T04:55:46.109Z,18.94
2017-01-09T04:56:44.766Z,18.94
2017-01-09T04:57:44.924Z,18.85
2017-01-09T04:59:00.010Z,18.85
2017-01-09T04:59:45.184Z,18.94
2017-01-09T05:00:45.141Z,18.85
2017-01-09T05:01:44.753Z,18.85
2017-01-09T05:02:45.154Z,18.85
2017-01-09T05:03:45.160Z,18.85
2017-01-09T05:04:44.774Z,19.04
2017-01-09T05:05:45.173Z,18.46
2017-01-09T05:06:46.083Z,18.65
2017-01-09T05:07:45.236Z,18.75
2017-01-09T05:08:45.249Z,18.94
2017-01-09T05:09:45.249Z,18.75
2017-01-09T05:10:44.812Z,18.94
2017-01-09T05:11:45.263Z,18.94
2017-01-09T05:12:44.875Z,18.85
2017-01-09T05:13:45.231Z,18.65
2017-01-09T05:14:45.285Z,18.85
2017-01-09T05:15:44.895Z,18.85
2017-01-09T05:16:44.902Z,18.94
2017-01-09T05:17:45.810Z,18.75
2017-01-09T05:18:45.260Z,18.85
2017-01-09T05:19:45.071Z,18.94
2017-01-09T05:20:45.323Z,18.85
2017-01-09T05:21:44.887Z,18.46
2017-01-09T05:22:44.892Z,18.75
2017-01-09T05:23:45.396Z,18.65
2017-01-09T05:24:45.305Z,18.94
2017-01-09T05:25:45.362Z,18.85
2017-01-09T05:26:44.967Z,18.85
2017-01-09T05:27:45.324Z,18.94
2017-01-09T05:28:46.055Z,18.46
2017-01-09T05:29:44.939Z,18.75
2017-01-09T05:30:44.949Z,18.65
2017-01-09T05:31:45.352Z,18.75
2017-01-09T05:32:45.405Z,18.75
2017-01-09T05:33:45.428Z,18.55
2017-01-09T05:34:45.422Z,18.75
2017-01-09T05:35:44.981Z,18.75
2017-01-09T05:36:44.988Z,18.55
2017-01-09T05:37:45.438Z,18.65
2017-01-09T05:38:45.051Z,18.75
2017-01-09T05:39:46.153Z,18.75
2017-01-09T05:40:45.411Z,18.55
2017-01-09T05:41:45.478Z,18.46
2017-01-09T05:42:45.426Z,18.85
2017-01-09T05:43:46.238Z,18.85
2017-01-09T05:44:45.486Z,18.85
2017-01-09T05:45:45.099Z,18.55
2017-01-09T05:46:45.454Z,18.85
2017-01-09T05:47:45.506Z,18.94
2017-01-09T05:48:45.464Z,18.85
2017-01-09T05:49:45.522Z,18.75
2017-01-09T05:50:45.527Z,18.75
2017-01-09T05:51:45.534Z,18.85
2017-01-09T05:52:45.490Z,18.85
2017-01-09T05:53:45.496Z,18.55
2017-01-09T05:54:45.659Z,18.85
2017-01-09T05:55:45.563Z,18.85
2017-01-09T05:56:45.568Z,18.75
2017-01-09T05:57:45.137Z,18.75
2017-01-09T05:58:45.582Z,18.75
2017-01-09T05:59:45.190Z,18.75
2017-01-09T06:00:45.645Z,18.85
2017-01-09T06:01:45.650Z,18.75
2017-01-09T06:02:45.210Z,18.46
2017-01-09T06:03:46.537Z,18.65
2017-01-09T06:04:45.174Z,18.65
2017-01-09T06:05:46.033Z,18.85
2017-01-09T06:06:45.239Z,18.85
2017-01-09T06:07:45.498Z,18.65
2017-01-09T06:08:45.203Z,18.65
2017-01-09T06:09:45.606Z,18.46
2017-01-09T06:10:45.711Z,18.55
2017-01-09T06:11:45.731Z,18.65
2017-01-09T06:12:45.282Z,18.85
2017-01-09T06:13:45.632Z,18.65
2017-01-09T06:14:45.243Z,18.75
2017-01-09T06:15:45.646Z,18.75
2017-01-09T06:16:46.404Z,18.75
2017-01-09T06:17:45.661Z,18.55
2017-01-09T06:18:45.667Z,18.55
2017-01-09T06:19:45.325Z,18.55
2017-01-09T06:20:45.332Z,18.55
2017-01-09T06:21:45.290Z,18.94
2017-01-09T06:22:45.691Z,18.85
2017-01-09T06:23:45.702Z,18.94
2017-01-09T06:24:45.756Z,18.85
2017-01-09T06:25:45.762Z,18.85
2017-01-09T06:26:45.768Z,18.85
2017-01-09T06:27:46.576Z,18.75
2017-01-09T06:28:45.334Z,18.65
2017-01-09T06:29:45.445Z,18.65
2017-01-09T06:30:45.746Z,18.65
2017-01-09T06:31:45.406Z,18.65
2017-01-09T06:32:45.365Z,18.55
2017-01-09T06:33:45.817Z,18.65
2017-01-09T06:34:45.777Z,18.46
2017-01-09T06:35:45.434Z,18.75
2017-01-09T06:36:45.835Z,18.55
2017-01-09T06:37:45.793Z,18.85
2017-01-09T06:38:46.551Z,18.85
2017-01-09T06:39:45.805Z,18.65
2017-01-09T06:40:45.864Z,18.75
2017-01-09T06:41:45.820Z,18.65
2017-01-09T06:42:45.829Z,18.65
2017-01-09T06:43:45.436Z,18.55
2017-01-09T06:44:45.890Z,18.46
2017-01-09T06:45:45.900Z,18.55
2017-01-09T06:46:45.852Z,18.65
2017-01-09T06:47:45.468Z,18.65
2017-01-09T06:48:45.965Z,18.75
2017-01-09T06:49:46.776Z,18.85
2017-01-09T06:50:45.981Z,18.75
2017-01-09T06:51:45.938Z,18.46
2017-01-09T06:52:45.499Z,18.75
2017-01-09T06:53:45.953Z,18.94
2017-01-09T06:54:46.007Z,18.55
2017-01-09T06:55:45.619Z,18.75
2017-01-09T06:56:45.528Z,18.65
2017-01-09T06:57:45.928Z,18.65
2017-01-09T06:58:45.933Z,18.94
2017-01-09T06:59:45.545Z,18.65
2017-01-09T07:00:46.600Z,18.65
2017-01-09T07:01:45.557Z,18.75
2017-01-09T07:02:45.960Z,18.65
2017-01-09T07:03:45.624Z,18.46
2017-01-09T07:04:45.578Z,18.75
2017-01-09T07:05:46.031Z,18.55
2017-01-09T07:06:45.987Z,18.55
2017-01-09T07:07:46.046Z,18.75
2017-01-09T07:08:46.101Z,18.46
2017-01-09T07:09:46.059Z,18.55
2017-01-09T07:10:46.066Z,18.55
2017-01-09T07:11:46.627Z,18.94
2017-01-09T07:12:46.081Z,18.46
2017-01-09T07:13:46.337Z,18.75
2017-01-09T07:14:45.695Z,18.65
2017-01-09T07:15:46.098Z,18.65
2017-01-09T07:16:45.710Z,18.75
2017-01-09T07:17:46.060Z,18.75
2017-01-09T07:18:45.674Z,18.94
2017-01-09T07:19:46.125Z,18.75
2017-01-09T07:20:45.687Z,18.75
2017-01-09T07:21:46.140Z,18.36
2017-01-09T07:22:46.696Z,18.75
2017-01-09T07:23:46.104Z,18.55
2017-01-09T07:24:45.763Z,18.55
2017-01-09T07:25:45.720Z,18.07
2017-01-09T07:26:46.728Z,18.46
2017-01-09T07:27:46.084Z,18.18
2017-01-09T07:28:47.013Z,18.08
2017-01-09T07:29:45.750Z,17.69
2017-01-09T07:30:46.202Z,17.7
2017-01-09T07:31:46.257Z,17.51
2017-01-09T07:32:46.163Z,17.22
2017-01-09T07:33:46.221Z,16.94
2017-01-09T07:34:46.276Z,16.84
2017-01-09T07:35:45.794Z,16.66
2017-01-09T07:36:46.192Z,16.75
2017-01-09T07:37:46.997Z,16.46
2017-01-09T07:38:45.858Z,15.88
2017-01-09T07:39:45.864Z,16.47
2017-01-09T07:40:46.321Z,16.08
2017-01-09T07:41:45.881Z,16.37
2017-01-09T07:42:45.837Z,15.59
2017-01-09T07:43:45.842Z,15.89
2017-01-09T07:44:45.900Z,15.59
2017-01-09T07:45:46.252Z,15.99
2017-01-09T07:46:45.863Z,15.89
2017-01-09T07:47:45.921Z,15.7
2017-01-09T07:48:46.873Z,15.61
2017-01-09T07:49:46.330Z,15.42
2017-01-09T07:50:45.891Z,15.61
2017-01-09T07:51:46.347Z,15.22
2017-01-09T07:52:46.352Z,15.03
2017-01-09T07:53:46.357Z,15.22
2017-01-09T07:54:46.367Z,15.22
2017-01-09T07:55:46.372Z,15.22
2017-01-09T07:56:45.935Z,15.22
2017-01-09T07:57:45.995Z,15.03
2017-01-09T07:58:46.397Z,15.03
2017-01-09T07:59:47.055Z,14.94
2017-01-09T08:00:46.359Z,14.94
2017-01-09T08:01:46.418Z,14.75
2017-01-09T08:02:46.376Z,14.84
2017-01-09T08:03:46.037Z,14.65
2017-01-09T08:04:45.990Z,14.84
2017-01-09T08:05:46.050Z,14.94
2017-01-09T08:06:46.454Z,14.94
2017-01-09T08:07:46.514Z,14.84
2017-01-09T08:08:46.124Z,14.84
2017-01-09T08:09:46.432Z,14.94
2017-01-09T08:10:46.735Z,14.84
2017-01-09T08:11:46.099Z,14.84
2017-01-09T08:12:46.055Z,14.94
2017-01-09T08:13:46.118Z,14.84
2017-01-09T08:14:46.571Z,14.94
2017-01-09T08:15:46.575Z,14.84
2017-01-09T08:16:46.531Z,15.04
2017-01-09T08:17:46.540Z,14.84
2017-01-09T08:18:46.151Z,14.94
2017-01-09T08:19:46.504Z,14.75
2017-01-09T08:20:46.169Z,14.45
2017-01-09T08:21:46.424Z,14.55
2017-01-09T08:22:46.526Z,14.94
2017-01-09T08:23:46.237Z,14.84
2017-01-09T08:24:46.196Z,14.94
2017-01-09T08:25:46.599Z,14.55
2017-01-09T08:26:46.556Z,14.55
2017-01-09T08:27:46.221Z,14.75
2017-01-09T08:29:01.106Z,14.75
2017-01-09T08:29:46.259Z,14.94
2017-01-09T08:30:46.250Z,14.75
2017-01-09T08:31:46.250Z,15.04
2017-01-09T08:32:46.609Z,14.55
2017-01-09T08:33:46.272Z,14.75
2017-01-09T08:34:46.683Z,14.45
2017-01-09T08:35:46.628Z,14.55
2017-01-09T08:36:46.239Z,14.84
2017-01-09T08:37:46.692Z,14.84
2017-01-09T08:38:46.700Z,14.85
2017-01-09T08:39:46.707Z,14.85
2017-01-09T08:40:46.666Z,14.65
2017-01-09T08:41:46.771Z,14.65
2017-01-09T08:42:46.335Z,14.75
2017-01-09T08:43:46.740Z,14.85
2017-01-09T08:44:46.351Z,14.85
2017-01-09T08:45:47.414Z,14.47
2017-01-09T08:46:46.766Z,14.84
2017-01-09T08:47:46.772Z,14.75
2017-01-09T08:48:46.385Z,14.55
2017-01-09T08:49:46.786Z,14.56
2017-01-09T08:50:46.743Z,15.05
2017-01-09T08:51:46.358Z,14.84
2017-01-09T08:52:46.763Z,14.75
2017-01-09T08:53:46.423Z,14.75
2017-01-09T08:54:46.827Z,14.94
2017-01-09T08:55:46.784Z,14.75
2017-01-09T08:56:47.645Z,14.65
2017-01-09T08:57:46.406Z,14.65
2017-01-09T08:58:46.510Z,14.65
2017-01-09T08:59:46.819Z,14.75
2017-01-09T09:00:46.424Z,14.85
2017-01-09T09:01:46.485Z,14.65
2017-01-09T09:02:46.542Z,14.56
2017-01-09T09:03:46.845Z,14.85
2017-01-09T09:04:46.510Z,14.75
2017-01-09T09:05:46.516Z,14.94
2017-01-09T09:06:46.868Z,14.75
2017-01-09T09:07:47.380Z,14.94
2017-01-09T09:08:46.984Z,15.33
2017-01-09T09:09:46.545Z,15.23
2017-01-09T09:10:46.513Z,15.23
2017-01-09T09:11:46.513Z,14.84
2017-01-09T09:12:46.965Z,15.23
2017-01-09T09:13:46.925Z,14.84
2017-01-09T09:14:47.032Z,14.84
2017-01-09T09:15:46.993Z,14.75
2017-01-09T09:16:46.602Z,15.04
2017-01-09T09:17:47.058Z,15.04
2017-01-09T09:18:47.265Z,15.42
2017-01-09T09:19:47.076Z,15.33
2017-01-09T09:20:46.976Z,15.14
2017-01-09T09:21:46.987Z,15.33
2017-01-09T09:22:46.997Z,15.42
2017-01-09T09:23:46.658Z,15.14
2017-01-09T09:24:47.063Z,15.42
2017-01-09T09:25:47.024Z,15.23
2017-01-09T09:26:47.079Z,15.23
2017-01-09T09:27:46.695Z,15.33
2017-01-09T09:28:47.094Z,14.84
2017-01-09T09:29:46.905Z,15.23
2017-01-09T09:30:46.664Z,15.14
2017-01-09T09:31:48.089Z,15.23
2017-01-09T09:32:47.174Z,15.23
2017-01-09T09:33:47.133Z,14.94
2017-01-09T09:34:47.139Z,14.94
2017-01-09T09:35:46.703Z,14.84
2017-01-09T09:36:47.156Z,14.75
2017-01-09T09:37:46.720Z,14.94
2017-01-09T09:38:46.727Z,14.75
2017-01-09T09:39:47.129Z,15.04
2017-01-09T09:40:47.291Z,15.14
2017-01-09T09:41:47.194Z,15.23
2017-01-09T09:42:46.808Z,15.04
2017-01-09T09:43:46.769Z,15.04
2017-01-09T09:44:47.167Z,15.52
2017-01-09T09:45:46.829Z,15.14
2017-01-09T09:46:47.234Z,15.14
2017-01-09T09:47:47.255Z,15.23
2017-01-09T09:48:47.199Z,15.14
2017-01-09T09:49:46.913Z,15.33
2017-01-09T09:50:47.215Z,15.33
2017-01-09T09:51:47.324Z,15.23
2017-01-09T09:52:47.332Z,15.33
2017-01-09T09:53:48.102Z,15.23
2017-01-09T09:54:47.252Z,15.53
2017-01-09T09:55:47.511Z,15.42
2017-01-09T09:56:47.263Z,14.94
2017-01-09T09:57:46.897Z,15.33
2017-01-09T09:58:46.932Z,15.33
2017-01-09T09:59:47.335Z,15.33
2017-01-09T10:00:47.393Z,14.85
2017-01-09T10:01:47.357Z,14.75
2017-01-09T10:02:47.361Z,15.33
2017-01-09T10:03:47.370Z,15.04
2017-01-09T10:04:48.511Z,14.75
2017-01-09T10:05:47.336Z,14.75
2017-01-09T10:06:47.097Z,14.75
2017-01-09T10:07:46.955Z,14.75
2017-01-09T10:08:47.706Z,14.75
2017-01-09T10:09:46.972Z,14.85
2017-01-09T10:10:47.426Z,14.75
2017-01-09T10:11:47.037Z,14.95
2017-01-09T10:12:47.439Z,14.95
2017-01-09T10:13:47.003Z,14.75
2017-01-09T10:14:47.457Z,14.95
2017-01-09T10:15:48.417Z,15.34
2017-01-09T10:16:47.027Z,15.33
2017-01-09T10:17:47.482Z,15.14
2017-01-09T10:18:47.094Z,15.04
2017-01-09T10:19:47.099Z,15.14
2017-01-09T10:20:47.455Z,14.95
2017-01-09T10:21:47.118Z,14.95
2017-01-09T10:22:47.474Z,14.75
2017-01-09T10:23:47.478Z,14.85
2017-01-09T10:24:47.093Z,14.95
2017-01-09T10:25:47.495Z,14.75
2017-01-09T10:26:48.455Z,14.95
2017-01-09T10:27:47.512Z,15.23
2017-01-09T10:28:47.173Z,15.14
2017-01-09T10:29:47.528Z,15.23
2017-01-09T10:30:47.539Z,14.75
2017-01-09T10:31:47.148Z,14.85
2017-01-09T10:32:47.602Z,14.95
2017-01-09T10:33:47.609Z,15.14
2017-01-09T10:34:47.572Z,14.75
2017-01-09T10:35:47.678Z,14.84
2017-01-09T10:36:47.189Z,14.85
2017-01-09T10:37:48.145Z,15.34
2017-01-09T10:38:47.652Z,14.75
2017-01-09T10:39:47.213Z,14.95
2017-01-09T10:40:47.615Z,15.34
2017-01-09T10:41:48.377Z,15.14
2017-01-09T10:42:47.287Z,15.14
2017-01-09T10:43:47.293Z,15.33
2017-01-09T10:44:47.699Z,15.33
2017-01-09T10:45:47.259Z,15.33
2017-01-09T10:46:47.762Z,15.23
2017-01-09T10:47:47.722Z,15.42
2017-01-09T10:48:47.333Z,15.14
2017-01-09T10:49:47.344Z,15.14
2017-01-09T10:50:47.302Z,15.33
2017-01-09T10:51:47.704Z,15.23
2017-01-09T10:52:48.415Z,15.14
2017-01-09T10:53:47.325Z,15.04
2017-01-09T10:54:47.729Z,15.14
2017-01-09T10:55:47.341Z,15.23
2017-01-09T10:56:47.796Z,15.42
2017-01-09T10:57:47.853Z,15.62
2017-01-09T10:58:47.415Z,15.42
2017-01-09T10:59:47.675Z,15.33
2017-01-09T11:00:47.777Z,15.33
2017-01-09T11:01:47.844Z,15.33
2017-01-09T11:02:47.398Z,15.33
2017-01-09T11:03:48.452Z,15.14
2017-01-09T11:04:47.864Z,15.14
2017-01-09T11:05:47.419Z,15.42
2017-01-09T11:06:47.877Z,15.52
2017-01-09T11:07:47.833Z,15.42
2017-01-09T11:08:47.445Z,15.42
2017-01-09T11:09:47.855Z,15.42
2017-01-09T11:10:47.859Z,15.23
2017-01-09T11:11:47.520Z,15.14
2017-01-09T11:12:47.580Z,15.42
2017-01-09T11:13:47.882Z,15.42
2017-01-09T11:14:48.589Z,15.34
2017-01-09T11:15:47.898Z,15.42
2017-01-09T11:16:47.907Z,15.42
2017-01-09T11:17:47.967Z,15.42
2017-01-09T11:18:47.577Z,15.52
2017-01-09T11:19:47.586Z,15.23
2017-01-09T11:20:47.989Z,15.52
2017-01-09T11:21:48.001Z,15.33
2017-01-09T11:22:47.957Z,15.33
2017-01-09T11:23:48.938Z,15.14
2017-01-09T11:24:48.020Z,15.52
2017-01-09T11:25:48.330Z,15.33
2017-01-09T11:26:48.038Z,15.42
2017-01-09T11:27:47.653Z,15.33
2017-01-09T11:28:48.004Z,15.42
2017-01-09T11:29:47.614Z,15.33
2017-01-09T11:30:48.071Z,15.42
2017-01-09T11:31:48.079Z,15.42
2017-01-09T11:32:47.640Z,15.42
2017-01-09T11:33:48.045Z,15.62
2017-01-09T11:34:48.105Z,15.42
2017-01-09T11:35:48.109Z,15.33
2017-01-09T11:36:48.568Z,15.42
2017-01-09T11:37:47.729Z,15.42
2017-01-09T11:38:49.159Z,15.42
2017-01-09T11:39:48.141Z,15.62
2017-01-09T11:40:47.805Z,15.42
2017-01-09T11:41:48.407Z,15.42
2017-01-09T11:42:48.164Z,15.52
2017-01-09T11:43:48.237Z,15.42
2017-01-09T11:44:48.180Z,15.44
2017-01-09T11:45:47.792Z,15.42
2017-01-09T11:46:48.146Z,15.62
2017-01-09T11:47:48.159Z,15.42
2017-01-09T11:48:47.815Z,15.62
2017-01-09T11:49:47.774Z,15.62
2017-01-09T11:50:47.843Z,15.42
2017-01-09T11:51:48.235Z,15.62
2017-01-09T11:52:47.798Z,15.42
2017-01-09T11:53:47.926Z,15.62
2017-01-09T11:54:48.263Z,15.62
2017-01-09T11:55:48.270Z,15.72
2017-01-09T11:56:48.228Z,15.62
2017-01-09T11:57:47.839Z,15.72
2017-01-09T11:58:47.896Z,15.62
2017-01-09T11:59:48.255Z,15.52
2017-01-09T12:00:49.408Z,15.72
2017-01-09T12:01:47.873Z,15.42
2017-01-09T12:02:48.325Z,15.42
2017-01-09T12:03:47.988Z,15.52
2017-01-09T12:04:48.341Z,15.52
2017-01-09T12:05:48.298Z,15.62
2017-01-09T12:06:47.960Z,15.62
2017-01-09T12:07:48.413Z,15.42
2017-01-09T12:08:48.322Z,15.62
2017-01-09T12:09:48.330Z,15.62
2017-01-09T12:10:48.040Z,15.33
2017-01-09T12:11:47.997Z,15.33
2017-01-09T12:12:48.349Z,15.62
2017-01-09T12:13:48.016Z,16.01
2017-01-09T12:14:47.969Z,15.62
2017-01-09T12:15:48.030Z,15.81
2017-01-09T12:16:48.433Z,15.71
2017-01-09T12:17:48.442Z,15.81
2017-01-09T12:18:48.016Z,16.01
2017-01-09T12:19:48.009Z,15.72
2017-01-09T12:20:48.465Z,16.01
2017-01-09T12:21:48.422Z,15.72
2017-01-09T12:22:49.081Z,15.81
2017-01-09T12:23:48.491Z,15.72
2017-01-09T12:24:48.499Z,15.72
2017-01-09T12:25:48.505Z,15.62
2017-01-09T12:26:48.065Z,15.52
2017-01-09T12:27:48.073Z,15.52
2017-01-09T12:28:48.577Z,15.33
2017-01-09T12:29:48.485Z,15.42
2017-01-09T12:30:48.146Z,15.42
2017-01-09T12:31:48.105Z,15.62
2017-01-09T12:32:48.164Z,15.62
2017-01-09T12:33:49.071Z,15.72
2017-01-09T12:34:48.625Z,16.01
2017-01-09T12:35:48.186Z,15.72
2017-01-09T12:36:48.146Z,15.72
2017-01-09T12:37:48.548Z,15.72
2017-01-09T12:38:48.607Z,15.72
2017-01-09T12:39:48.168Z,15.62
2017-01-09T12:40:48.623Z,15.72
2017-01-09T12:41:48.578Z,15.81
2017-01-09T12:42:48.292Z,15.62
2017-01-09T12:43:48.596Z,15.52
2017-01-09T12:44:48.359Z,15.52
2017-01-09T12:45:48.607Z,15.62
2017-01-09T12:46:49.595Z,15.33
2017-01-09T12:47:48.630Z,15.33
2017-01-09T12:48:48.289Z,15.42
2017-01-09T12:49:48.693Z,15.44
2017-01-09T12:50:48.305Z,15.34
2017-01-09T12:51:48.708Z,15.44
2017-01-09T12:52:48.272Z,15.62